sensor_id;sensor_type;location;lat;lon;timestamp;pressure;altitude;pressure_sealevel;temperature;humidity
40872;BME280;26591;43.264;26.940;2023-05-20T00:01:07;99119.56;;;18.48;56.31
40872;BME280;26591;43.264;26.940;2023-05-20T00:03:33;99132.31;;;18.84;55.37
40872;BME280;26591;43.264;26.940;2023-05-20T00:05:58;99126.03;;;18.97;55.09
40872;BME280;26591;43.264;26.940;2023-05-20T00:08:23;99132.91;;;18.86;55.40
40872;BME280;26591;43.264;26.940;2023-05-20T00:10:49;99132.22;;;18.66;55.64
40872;BME280;26591;43.264;26.940;2023-05-20T00:13:15;99125.19;;;18.71;55.75
40872;BME280;26591;43.264;26.940;2023-05-20T00:15:40;99112.19;;;18.68;55.87
40872;BME280;26591;43.264;26.940;2023-05-20T00:18:08;99100.91;;;18.34;56.29
40872;BME280;26591;43.264;26.940;2023-05-20T00:20:34;99106.00;;;18.42;56.21
40872;BME280;26591;43.264;26.940;2023-05-20T00:23:00;99102.66;;;18.47;56.21
40872;BME280;26591;43.264;26.940;2023-05-20T00:25:25;99097.84;;;18.30;55.99
40872;BME280;26591;43.264;26.940;2023-05-20T00:27:51;99099.03;;;18.35;56.46
40872;BME280;26591;43.264;26.940;2023-05-20T00:30:16;99089.72;;;18.44;55.85
40872;BME280;26591;43.264;26.940;2023-05-20T00:32:44;99096.47;;;18.79;55.66
40872;BME280;26591;43.264;26.940;2023-05-20T00:35:10;99102.38;;;18.94;55.35
40872;BME280;26591;43.264;26.940;2023-05-20T00:37:35;99111.59;;;18.98;54.86
40872;BME280;26591;43.264;26.940;2023-05-20T00:40:04;99102.72;;;19.23;54.87
40872;BME280;26591;43.264;26.940;2023-05-20T00:42:29;99102.22;;;19.33;54.19
40872;BME280;26591;43.264;26.940;2023-05-20T00:44:55;99111.50;;;19.30;54.57
40872;BME280;26591;43.264;26.940;2023-05-20T00:47:25;99111.25;;;19.39;54.47
40872;BME280;26591;43.264;26.940;2023-05-20T00:50:00;99114.91;;;19.44;54.49
40872;BME280;26591;43.264;26.940;2023-05-20T00:52:28;99115.25;;;19.48;54.07
40872;BME280;26591;43.264;26.940;2023-05-20T00:54:56;99113.91;;;19.57;54.38
40872;BME280;26591;43.264;26.940;2023-05-20T00:57:22;99115.41;;;19.72;53.88
40872;BME280;26591;43.264;26.940;2023-05-20T00:59:47;99112.38;;;19.87;53.41
40872;BME280;26591;43.264;26.940;2023-05-20T01:02:13;99124.53;;;20.08;52.99
40872;BME280;26591;43.264;26.940;2023-05-20T01:04:38;99124.66;;;20.13;52.93
40872;BME280;26591;43.264;26.940;2023-05-20T01:07:05;99130.69;;;20.08;53.10
40872;BME280;26591;43.264;26.940;2023-05-20T01:09:32;99149.41;;;19.59;53.25
40872;BME280;26591;43.264;26.940;2023-05-20T01:12:17;99148.00;;;19.57;54.07
40872;BME280;26591;43.264;26.940;2023-05-20T01:14:56;99121.91;;;19.45;53.93
40872;BME280;26591;43.264;26.940;2023-05-20T01:17:25;99124.13;;;19.30;54.77
40872;BME280;26591;43.264;26.940;2023-05-20T01:19:53;99126.91;;;18.91;55.60
40872;BME280;26591;43.264;26.940;2023-05-20T01:22:24;99107.28;;;18.90;55.94
40872;BME280;26591;43.264;26.940;2023-05-20T01:24:50;99112.56;;;18.79;56.79
40872;BME280;26591;43.264;26.940;2023-05-20T01:27:18;99108.56;;;18.88;56.34
40872;BME280;26591;43.264;26.940;2023-05-20T01:29:45;99099.81;;;18.74;56.53
40872;BME280;26591;43.264;26.940;2023-05-20T01:32:42;99100.94;;;18.27;57.48
40872;BME280;26591;43.264;26.940;2023-05-20T01:35:12;99085.06;;;18.26;57.88
40872;BME280;26591;43.264;26.940;2023-05-20T01:37:39;99090.38;;;17.94;58.62
40872;BME280;26591;43.264;26.940;2023-05-20T01:40:09;99082.44;;;17.67;59.35
40872;BME280;26591;43.264;26.940;2023-05-20T01:42:37;99094.13;;;17.86;59.93
40872;BME280;26591;43.264;26.940;2023-05-20T01:45:05;99091.25;;;17.81;59.80
40872;BME280;26591;43.264;26.940;2023-05-20T01:47:31;99095.31;;;17.90;59.14
40872;BME280;26591;43.264;26.940;2023-05-20T01:49:56;99107.50;;;17.86;59.59
40872;BME280;26591;43.264;26.940;2023-05-20T01:52:24;99111.66;;;17.75;60.38
40872;BME280;26591;43.264;26.940;2023-05-20T01:54:49;99113.84;;;17.92;60.12
40872;BME280;26591;43.264;26.940;2023-05-20T01:57:21;99110.06;;;18.20;59.34
40872;BME280;26591;43.264;26.940;2023-05-20T01:59:48;99109.94;;;17.94;59.32
40872;BME280;26591;43.264;26.940;2023-05-20T02:02:14;99113.06;;;17.84;59.90
40872;BME280;26591;43.264;26.940;2023-05-20T02:04:42;99108.03;;;17.36;61.34
40872;BME280;26591;43.264;26.940;2023-05-20T02:07:10;99106.00;;;17.24;61.91
40872;BME280;26591;43.264;26.940;2023-05-20T02:09:36;99101.47;;;17.32;61.84
40872;BME280;26591;43.264;26.940;2023-05-20T02:12:02;99102.53;;;17.04;62.13
40872;BME280;26591;43.264;26.940;2023-05-20T02:14:27;99099.22;;;16.82;63.04
40872;BME280;26591;43.264;26.940;2023-05-20T02:16:52;99110.31;;;16.72;63.87
40872;BME280;26591;43.264;26.940;2023-05-20T02:19:18;99112.16;;;16.85;63.68
40872;BME280;26591;43.264;26.940;2023-05-20T02:21:48;99112.59;;;16.88;63.59
40872;BME280;26591;43.264;26.940;2023-05-20T02:24:13;99116.06;;;16.69;63.63
40872;BME280;26591;43.264;26.940;2023-05-20T02:26:41;99116.88;;;16.62;63.79
40872;BME280;26591;43.264;26.940;2023-05-20T02:29:08;99120.53;;;16.48;64.64
40872;BME280;26591;43.264;26.940;2023-05-20T02:31:34;99127.38;;;16.64;64.25
40872;BME280;26591;43.264;26.940;2023-05-20T02:34:00;99134.38;;;16.85;64.18
40872;BME280;26591;43.264;26.940;2023-05-20T02:36:27;99116.88;;;16.62;64.19
40872;BME280;26591;43.264;26.940;2023-05-20T02:38:53;99123.28;;;16.68;64.79
40872;BME280;26591;43.264;26.940;2023-05-20T02:41:21;99118.09;;;16.53;65.43
40872;BME280;26591;43.264;26.940;2023-05-20T02:43:47;99122.44;;;16.74;64.49
40872;BME280;26591;43.264;26.940;2023-05-20T02:46:12;99134.38;;;16.72;64.18
40872;BME280;26591;43.264;26.940;2023-05-20T02:48:41;99132.50;;;16.59;64.70
40872;BME280;26591;43.264;26.940;2023-05-20T02:51:06;99136.13;;;16.31;66.57
40872;BME280;26591;43.264;26.940;2023-05-20T02:53:32;99124.41;;;16.25;66.18
40872;BME280;26591;43.264;26.940;2023-05-20T02:55:57;99119.09;;;16.39;66.25
40872;BME280;26591;43.264;26.940;2023-05-20T02:58:23;99127.91;;;16.32;66.81
40872;BME280;26591;43.264;26.940;2023-05-20T03:00:51;99127.06;;;16.19;67.12
40872;BME280;26591;43.264;26.940;2023-05-20T03:03:16;99141.84;;;16.21;66.69
40872;BME280;26591;43.264;26.940;2023-05-20T03:05:42;99143.22;;;16.10;67.14
40872;BME280;26591;43.264;26.940;2023-05-20T03:08:10;99138.78;;;16.24;67.24
40872;BME280;26591;43.264;26.940;2023-05-20T03:10:37;99141.00;;;16.07;67.48
40872;BME280;26591;43.264;26.940;2023-05-20T03:13:04;99137.94;;;16.17;67.16
40872;BME280;26591;43.264;26.940;2023-05-20T03:15:33;99144.69;;;16.13;67.30
40872;BME280;26591;43.264;26.940;2023-05-20T03:17:59;99142.31;;;16.31;67.47
40872;BME280;26591;43.264;26.940;2023-05-20T03:20:25;99143.88;;;16.12;67.88
40872;BME280;26591;43.264;26.940;2023-05-20T03:22:51;99127.44;;;16.15;68.32
40872;BME280;26591;43.264;26.940;2023-05-20T03:25:16;99139.53;;;16.11;67.60
40872;BME280;26591;43.264;26.940;2023-05-20T03:27:42;99144.69;;;16.13;68.07
40872;BME280;26591;43.264;26.940;2023-05-20T03:30:09;99144.97;;;16.25;67.76
40872;BME280;26591;43.264;26.940;2023-05-20T03:32:34;99144.69;;;16.06;68.16
40872;BME280;26591;43.264;26.940;2023-05-20T03:35:00;99145.09;;;16.10;68.22
40872;BME280;26591;43.264;26.940;2023-05-20T03:37:26;99151.25;;;16.10;67.40
40872;BME280;26591;43.264;26.940;2023-05-20T03:39:52;99153.00;;;16.31;67.33
40872;BME280;26591;43.264;26.940;2023-05-20T03:42:17;99153.38;;;16.22;67.00
40872;BME280;26591;43.264;26.940;2023-05-20T03:44:45;99156.09;;;16.48;66.44
40872;BME280;26591;43.264;26.940;2023-05-20T03:47:11;99158.34;;;16.38;66.41
40872;BME280;26591;43.264;26.940;2023-05-20T03:49:36;99163.47;;;16.33;66.59
40872;BME280;26591;43.264;26.940;2023-05-20T03:52:04;99159.38;;;16.37;66.76
40872;BME280;26591;43.264;26.940;2023-05-20T03:54:29;99167.22;;;16.59;66.24
40872;BME280;26591;43.264;26.940;2023-05-20T03:56:55;99168.25;;;16.65;65.70
40872;BME280;26591;43.264;26.940;2023-05-20T03:59:21;99164.16;;;16.75;65.23
40872;BME280;26591;43.264;26.940;2023-05-20T04:01:47;99163.91;;;16.57;65.80
40872;BME280;26591;43.264;26.940;2023-05-20T04:04:13;99176.09;;;16.73;65.41
40872;BME280;26591;43.264;26.940;2023-05-20T04:06:38;99176.09;;;16.66;65.75
40872;BME280;26591;43.264;26.940;2023-05-20T04:09:05;99176.06;;;16.59;65.78
40872;BME280;26591;43.264;26.940;2023-05-20T04:11:31;99193.53;;;16.55;66.13
40872;BME280;26591;43.264;26.940;2023-05-20T04:13:56;99190.81;;;16.42;66.32
40872;BME280;26591;43.264;26.940;2023-05-20T04:16:23;99197.00;;;16.49;66.69
40872;BME280;26591;43.264;26.940;2023-05-20T04:18:48;99197.91;;;16.21;67.22
40872;BME280;26591;43.264;26.940;2023-05-20T04:21:15;99191.59;;;16.29;67.20
40872;BME280;26591;43.264;26.940;2023-05-20T04:23:40;99198.94;;;16.20;67.93
40872;BME280;26591;43.264;26.940;2023-05-20T04:26:06;99204.72;;;16.24;68.11
40872;BME280;26591;43.264;26.940;2023-05-20T04:28:31;99190.13;;;16.26;68.08
40872;BME280;26591;43.264;26.940;2023-05-20T04:31:00;99194.66;;;16.32;67.98
40872;BME280;26591;43.264;26.940;2023-05-20T04:33:29;99198.81;;;16.35;68.43
40872;BME280;26591;43.264;26.940;2023-05-20T04:35:57;99206.91;;;16.62;68.30
40872;BME280;26591;43.264;26.940;2023-05-20T04:38:24;99210.56;;;16.47;67.56
40872;BME280;26591;43.264;26.940;2023-05-20T04:40:59;99217.28;;;16.37;67.83
40872;BME280;26591;43.264;26.940;2023-05-20T04:43:26;99221.91;;;16.63;67.89
40872;BME280;26591;43.264;26.940;2023-05-20T04:45:57;99217.53;;;16.42;68.13
40872;BME280;26591;43.264;26.940;2023-05-20T04:48:22;99213.59;;;16.38;68.67
40872;BME280;26591;43.264;26.940;2023-05-20T04:50:48;99211.31;;;16.35;69.36
40872;BME280;26591;43.264;26.940;2023-05-20T04:53:15;99220.22;;;16.48;68.64
40872;BME280;26591;43.264;26.940;2023-05-20T04:55:42;99211.38;;;16.48;68.52
40872;BME280;26591;43.264;26.940;2023-05-20T04:58:08;99209.06;;;16.31;68.89
40872;BME280;26591;43.264;26.940;2023-05-20T05:00:40;99207.81;;;16.27;68.96
40872;BME280;26591;43.264;26.940;2023-05-20T05:03:06;99207.81;;;16.27;69.73
40872;BME280;26591;43.264;26.940;2023-05-20T05:05:34;99206.00;;;16.41;68.61
40872;BME280;26591;43.264;26.940;2023-05-20T05:08:02;99204.81;;;16.51;69.03
40872;BME280;26591;43.264;26.940;2023-05-20T05:10:27;99210.38;;;16.56;69.15
40872;BME280;26591;43.264;26.940;2023-05-20T05:12:53;99211.81;;;16.52;69.69
40872;BME280;26591;43.264;26.940;2023-05-20T05:15:19;99210.69;;;16.32;70.40
40872;BME280;26591;43.264;26.940;2023-05-20T05:17:44;99218.41;;;16.62;69.78
40872;BME280;26591;43.264;26.940;2023-05-20T05:20:10;99222.72;;;16.70;68.86
40872;BME280;26591;43.264;26.940;2023-05-20T05:22:35;99224.16;;;16.59;69.39
40872;BME280;26591;43.264;26.940;2023-05-20T05:25:02;99218.25;;;16.77;68.75
40872;BME280;26591;43.264;26.940;2023-05-20T05:27:28;99218.97;;;16.51;69.51
40872;BME280;26591;43.264;26.940;2023-05-20T05:29:53;99225.97;;;16.52;69.76
40872;BME280;26591;43.264;26.940;2023-05-20T05:32:19;99221.28;;;16.61;69.45
40872;BME280;26591;43.264;26.940;2023-05-20T05:34:46;99228.66;;;16.52;69.37
40872;BME280;26591;43.264;26.940;2023-05-20T05:37:11;99236.31;;;16.69;68.84
40872;BME280;26591;43.264;26.940;2023-05-20T05:39:37;99237.94;;;16.63;70.29
40872;BME280;26591;43.264;26.940;2023-05-20T05:42:03;99248.22;;;16.59;70.17
40872;BME280;26591;43.264;26.940;2023-05-20T05:44:29;99257.69;;;16.69;70.40
40872;BME280;26591;43.264;26.940;2023-05-20T05:46:54;99251.72;;;16.73;71.03
40872;BME280;26591;43.264;26.940;2023-05-20T05:49:20;99248.75;;;16.41;72.78
40872;BME280;26591;43.264;26.940;2023-05-20T05:51:45;99252.69;;;16.52;73.93
40872;BME280;26591;43.264;26.940;2023-05-20T05:54:11;99244.22;;;16.42;74.98
40872;BME280;26591;43.264;26.940;2023-05-20T05:56:37;99244.09;;;16.63;74.28
40872;BME280;26591;43.264;26.940;2023-05-20T05:59:03;99238.06;;;16.41;75.40
40872;BME280;26591;43.264;26.940;2023-05-20T06:01:29;99224.50;;;16.36;75.81
40872;BME280;26591;43.264;26.940;2023-05-20T06:03:55;99222.44;;;16.38;76.48
40872;BME280;26591;43.264;26.940;2023-05-20T06:06:21;99215.47;;;16.37;76.49
40872;BME280;26591;43.264;26.940;2023-05-20T06:08:46;99221.66;;;16.51;77.71
40872;BME280;26591;43.264;26.940;2023-05-20T06:11:11;99212.91;;;16.84;76.90
40872;BME280;26591;43.264;26.940;2023-05-20T06:13:37;99210.44;;;16.76;75.55
40872;BME280;26591;43.264;26.940;2023-05-20T06:16:03;99214.13;;;16.68;76.12
40872;BME280;26591;43.264;26.940;2023-05-20T06:18:28;99202.97;;;16.58;75.76
40872;BME280;26591;43.264;26.940;2023-05-20T06:20:55;99204.16;;;16.35;76.73
40872;BME280;26591;43.264;26.940;2023-05-20T06:23:21;99203.06;;;16.23;77.44
40872;BME280;26591;43.264;26.940;2023-05-20T06:25:47;99198.13;;;16.20;78.04
40872;BME280;26591;43.264;26.940;2023-05-20T06:28:13;99189.22;;;16.06;78.38
40872;BME280;26591;43.264;26.940;2023-05-20T06:30:40;99193.25;;;15.88;79.08
40872;BME280;26591;43.264;26.940;2023-05-20T06:33:05;99176.28;;;16.02;78.72
40872;BME280;26591;43.264;26.940;2023-05-20T06:35:31;99178.28;;;15.87;80.22
40872;BME280;26591;43.264;26.940;2023-05-20T06:37:59;99169.56;;;15.78;80.18
40872;BME280;26591;43.264;26.940;2023-05-20T06:40:26;99170.19;;;15.80;80.53
40872;BME280;26591;43.264;26.940;2023-05-20T06:42:52;99169.34;;;15.80;80.18
40872;BME280;26591;43.264;26.940;2023-05-20T06:45:17;99171.75;;;16.03;79.08
40872;BME280;26591;43.264;26.940;2023-05-20T06:47:43;99159.69;;;16.07;78.67
40872;BME280;26591;43.264;26.940;2023-05-20T06:50:10;99152.00;;;15.91;78.64
40872;BME280;26591;43.264;26.940;2023-05-20T06:52:38;99156.94;;;15.94;78.46
40872;BME280;26591;43.264;26.940;2023-05-20T06:55:04;99152.22;;;15.96;77.91
40872;BME280;26591;43.264;26.940;2023-05-20T06:57:30;99148.31;;;15.92;77.73
40872;BME280;26591;43.264;26.940;2023-05-20T06:59:56;99153.28;;;16.01;77.37
40872;BME280;26591;43.264;26.940;2023-05-20T07:02:22;99144.94;;;15.83;77.18
40872;BME280;26591;43.264;26.940;2023-05-20T07:04:48;99142.94;;;15.85;76.51
40872;BME280;26591;43.264;26.940;2023-05-20T07:07:14;99136.16;;;15.89;75.78
40872;BME280;26591;43.264;26.940;2023-05-20T07:09:40;99140.16;;;16.07;75.71
40872;BME280;26591;43.264;26.940;2023-05-20T07:12:06;99132.94;;;16.00;76.24
40872;BME280;26591;43.264;26.940;2023-05-20T07:14:31;99132.19;;;16.20;75.66
40872;BME280;26591;43.264;26.940;2023-05-20T07:16:57;99134.47;;;16.23;74.96
40872;BME280;26591;43.264;26.940;2023-05-20T07:19:22;99131.00;;;16.29;74.35
40872;BME280;26591;43.264;26.940;2023-05-20T07:21:48;99128.63;;;15.99;75.99
40872;BME280;26591;43.264;26.940;2023-05-20T07:24:15;99138.91;;;16.02;74.29
40872;BME280;26591;43.264;26.940;2023-05-20T07:26:40;99135.03;;;16.05;74.57
40872;BME280;26591;43.264;26.940;2023-05-20T07:29:06;99148.22;;;16.27;74.74
40872;BME280;26591;43.264;26.940;2023-05-20T07:31:34;99141.22;;;16.19;74.94
40872;BME280;26591;43.264;26.940;2023-05-20T07:34:00;99132.41;;;16.19;73.24
40872;BME280;26591;43.264;26.940;2023-05-20T07:36:27;99138.53;;;16.19;72.78
40872;BME280;26591;43.264;26.940;2023-05-20T07:38:53;99141.06;;;16.27;72.46
40872;BME280;26591;43.264;26.940;2023-05-20T07:41:19;99141.47;;;16.38;73.12
40872;BME280;26591;43.264;26.940;2023-05-20T07:43:45;99123.38;;;16.26;72.41
40872;BME280;26591;43.264;26.940;2023-05-20T07:46:11;99115.81;;;16.50;72.40
40872;BME280;26591;43.264;26.940;2023-05-20T07:48:36;99123.38;;;16.26;72.36
40872;BME280;26591;43.264;26.940;2023-05-20T07:51:02;99121.94;;;16.17;73.17
40872;BME280;26591;43.264;26.940;2023-05-20T07:53:28;99118.78;;;16.00;73.57
40872;BME280;26591;43.264;26.940;2023-05-20T07:55:54;99131.31;;;15.99;71.82
40872;BME280;26591;43.264;26.940;2023-05-20T07:58:20;99123.31;;;15.99;71.39
40872;BME280;26591;43.264;26.940;2023-05-20T08:00:46;99130.72;;;16.11;72.46
40872;BME280;26591;43.264;26.940;2023-05-20T08:03:11;99126.16;;;16.05;73.44
40872;BME280;26591;43.264;26.940;2023-05-20T08:05:39;99138.97;;;16.16;73.28
40872;BME280;26591;43.264;26.940;2023-05-20T08:08:05;99154.19;;;16.29;73.17
40872;BME280;26591;43.264;26.940;2023-05-20T08:11:02;99166.53;;;16.37;73.63
40872;BME280;26591;43.264;26.940;2023-05-20T08:13:28;99162.41;;;16.27;73.65
40872;BME280;26591;43.264;26.940;2023-05-20T08:16:00;99168.00;;;16.39;72.72
40872;BME280;26591;43.264;26.940;2023-05-20T08:18:26;99179.13;;;16.50;72.91
40872;BME280;26591;43.264;26.940;2023-05-20T08:20:54;99185.94;;;16.72;72.53
40872;BME280;26591;43.264;26.940;2023-05-20T08:23:19;99189.06;;;16.83;73.15
40872;BME280;26591;43.264;26.940;2023-05-20T08:25:45;99184.75;;;16.88;72.02
40872;BME280;26591;43.264;26.940;2023-05-20T08:28:13;99189.13;;;17.03;72.61
40872;BME280;26591;43.264;26.940;2023-05-20T08:30:39;99195.69;;;17.00;73.31
40872;BME280;26591;43.264;26.940;2023-05-20T08:36:12;99200.00;;;17.28;72.36
40872;BME280;26591;43.264;26.940;2023-05-20T08:38:40;99206.41;;;17.34;71.54
40872;BME280;26591;43.264;26.940;2023-05-20T08:41:05;99203.72;;;17.61;71.38
40872;BME280;26591;43.264;26.940;2023-05-20T08:43:31;99209.06;;;17.61;71.46
40872;BME280;26591;43.264;26.940;2023-05-20T08:45:59;99212.16;;;17.58;71.72
40872;BME280;26591;43.264;26.940;2023-05-20T08:48:32;99206.41;;;17.47;71.25
40872;BME280;26591;43.264;26.940;2023-05-20T08:50:58;99208.25;;;17.40;71.52
40872;BME280;26591;43.264;26.940;2023-05-20T08:53:24;99207.81;;;17.57;72.34
40872;BME280;26591;43.264;26.940;2023-05-20T08:55:55;99211.69;;;17.88;71.77
40872;BME280;26591;43.264;26.940;2023-05-20T08:58:23;99213.78;;;17.72;72.31
40872;BME280;26591;43.264;26.940;2023-05-20T09:00:50;99218.13;;;17.60;71.82
40872;BME280;26591;43.264;26.940;2023-05-20T09:03:19;99212.13;;;17.78;71.43
40872;BME280;26591;43.264;26.940;2023-05-20T09:05:46;99214.31;;;18.14;72.12
40872;BME280;26591;43.264;26.940;2023-05-20T09:08:12;99204.00;;;18.11;71.45
40872;BME280;26591;43.264;26.940;2023-05-20T09:10:39;99206.03;;;18.29;70.83
40872;BME280;26591;43.264;26.940;2023-05-20T09:13:05;99207.16;;;18.47;69.87
40872;BME280;26591;43.264;26.940;2023-05-20T09:15:32;99213.97;;;18.50;69.22
40872;BME280;26591;43.264;26.940;2023-05-20T09:18:03;99210.00;;;18.59;69.44
40872;BME280;26591;43.264;26.940;2023-05-20T09:20:29;99209.00;;;18.53;69.69
40872;BME280;26591;43.264;26.940;2023-05-20T09:23:00;99202.31;;;18.30;68.44
40872;BME280;26591;43.264;26.940;2023-05-20T09:25:27;99202.34;;;18.63;69.60
40872;BME280;26591;43.264;26.940;2023-05-20T09:27:53;99196.06;;;18.82;69.48
40872;BME280;26591;43.264;26.940;2023-05-20T09:30:22;99190.56;;;19.02;68.28
40872;BME280;26591;43.264;26.940;2023-05-20T09:32:58;99192.66;;;19.00;67.55
40872;BME280;26591;43.264;26.940;2023-05-20T09:35:25;99197.81;;;19.27;67.46
40872;BME280;26591;43.264;26.940;2023-05-20T09:37:53;99189.66;;;19.41;67.24
40872;BME280;26591;43.264;26.940;2023-05-20T09:40:23;99184.84;;;19.68;67.51
40872;BME280;26591;43.264;26.940;2023-05-20T09:42:59;99182.03;;;19.63;66.94
40872;BME280;26591;43.264;26.940;2023-05-20T09:45:25;99181.66;;;19.78;66.03
40872;BME280;26591;43.264;26.940;2023-05-20T09:47:52;99177.25;;;19.83;65.15
40872;BME280;26591;43.264;26.940;2023-05-20T09:50:20;99181.81;;;20.20;64.70
40872;BME280;26591;43.264;26.940;2023-05-20T09:52:47;99181.16;;;20.55;64.18
40872;BME280;26591;43.264;26.940;2023-05-20T09:55:14;99173.91;;;20.98;61.66
40872;BME280;26591;43.264;26.940;2023-05-20T09:57:43;99175.47;;;21.18;61.87
40872;BME280;26591;43.264;26.940;2023-05-20T10:00:09;99168.81;;;21.32;60.89
40872;BME280;26591;43.264;26.940;2023-05-20T10:02:41;99174.44;;;21.31;61.16
40872;BME280;26591;43.264;26.940;2023-05-20T10:05:13;99165.78;;;21.53;60.01
40872;BME280;26591;43.264;26.940;2023-05-20T10:16:21;99149.06;;;23.07;57.81
40872;BME280;26591;43.264;26.940;2023-05-20T10:21:38;99152.75;;;23.35;57.37
40872;BME280;26591;43.264;26.940;2023-05-20T10:24:08;99163.38;;;23.42;56.62
40872;BME280;26591;43.264;26.940;2023-05-20T10:26:39;99137.03;;;23.49;55.35
40872;BME280;26591;43.264;26.940;2023-05-20T10:29:18;99152.41;;;23.49;55.77
40872;BME280;26591;43.264;26.940;2023-05-20T10:31:47;99146.59;;;23.40;54.94
40872;BME280;26591;43.264;26.940;2023-05-20T10:39:28;99135.44;;;23.53;55.01
40872;BME280;26591;43.264;26.940;2023-05-20T10:42:08;99137.69;;;23.39;55.45
40872;BME280;26591;43.264;26.940;2023-05-20T10:44:44;99131.47;;;23.39;57.27
40872;BME280;26591;43.264;26.940;2023-05-20T10:47:11;99124.13;;;23.34;55.74
40872;BME280;26591;43.264;26.940;2023-05-20T10:49:46;99122.00;;;23.19;56.75
40872;BME280;26591;43.264;26.940;2023-05-20T10:52:12;99116.59;;;23.36;56.66
40872;BME280;26591;43.264;26.940;2023-05-20T10:54:58;99111.44;;;23.17;56.28
40872;BME280;26591;43.264;26.940;2023-05-20T10:57:28;99103.34;;;22.66;57.80
40872;BME280;26591;43.264;26.940;2023-05-20T11:02:22;99101.00;;;23.21;58.00
40872;BME280;26591;43.264;26.940;2023-05-20T11:04:52;99095.47;;;23.33;56.57
40872;BME280;26591;43.264;26.940;2023-05-20T11:07:28;99086.28;;;23.29;57.97
40872;BME280;26591;43.264;26.940;2023-05-20T11:09:55;99079.72;;;23.25;57.95
40872;BME280;26591;43.264;26.940;2023-05-20T11:12:22;99081.09;;;23.10;57.79
40872;BME280;26591;43.264;26.940;2023-05-20T11:14:48;99072.56;;;23.19;57.14
40872;BME280;26591;43.264;26.940;2023-05-20T11:17:15;99067.88;;;23.48;57.41
40872;BME280;26591;43.264;26.940;2023-05-20T11:19:41;99058.22;;;23.52;57.01
40872;BME280;26591;43.264;26.940;2023-05-20T11:22:07;99043.44;;;23.82;57.04
40872;BME280;26591;43.264;26.940;2023-05-20T11:24:41;99037.56;;;23.90;56.76
40872;BME280;26591;43.264;26.940;2023-05-20T11:27:07;99032.22;;;24.18;56.28
40872;BME280;26591;43.264;26.940;2023-05-20T11:29:32;99037.06;;;24.21;55.86
40872;BME280;26591;43.264;26.940;2023-05-20T11:31:59;99030.03;;;24.20;55.06
40872;BME280;26591;43.264;26.940;2023-05-20T11:34:25;99017.06;;;24.17;54.07
40872;BME280;26591;43.264;26.940;2023-05-20T11:36:57;99026.72;;;24.40;54.55
40872;BME280;26591;43.264;26.940;2023-05-20T11:39:23;99031.66;;;24.48;53.54
40872;BME280;26591;43.264;26.940;2023-05-20T11:41:51;99047.53;;;23.62;55.53
40872;BME280;26591;43.264;26.940;2023-05-20T11:44:18;99075.97;;;22.29;64.84
40872;BME280;26591;43.264;26.940;2023-05-20T11:46:47;99105.84;;;21.22;67.93
40872;BME280;26591;43.264;26.940;2023-05-20T11:49:13;99098.38;;;20.46;70.93
40872;BME280;26591;43.264;26.940;2023-05-20T11:51:40;99100.72;;;19.93;70.64
40872;BME280;26591;43.264;26.940;2023-05-20T11:54:06;99106.34;;;19.54;70.25
40872;BME280;26591;43.264;26.940;2023-05-20T11:56:33;99096.63;;;19.72;70.26
40872;BME280;26591;43.264;26.940;2023-05-20T11:59:00;99092.13;;;20.03;68.18
40872;BME280;26591;43.264;26.940;2023-05-20T12:01:29;99081.09;;;20.11;67.38
40872;BME280;26591;43.264;26.940;2023-05-20T12:03:55;99060.59;;;19.98;66.87
40872;BME280;26591;43.264;26.940;2023-05-20T12:06:21;99051.72;;;19.97;66.00
40872;BME280;26591;43.264;26.940;2023-05-20T12:08:46;99050.16;;;19.71;66.76
40872;BME280;26591;43.264;26.940;2023-05-20T12:11:12;99033.25;;;19.33;68.47
40872;BME280;26591;43.264;26.940;2023-05-20T12:13:38;99032.66;;;19.13;67.01
40872;BME280;26591;43.264;26.940;2023-05-20T12:16:05;99028.09;;;18.95;68.39
40872;BME280;26591;43.264;26.940;2023-05-20T12:18:31;99025.06;;;19.10;67.94
40872;BME280;26591;43.264;26.940;2023-05-20T12:20:58;99018.06;;;19.09;65.96
40872;BME280;26591;43.264;26.940;2023-05-20T12:23:23;99016.53;;;18.69;67.09
40872;BME280;26591;43.264;26.940;2023-05-20T12:25:51;99011.19;;;18.94;67.61
40872;BME280;26591;43.264;26.940;2023-05-20T12:28:17;99022.53;;;18.96;67.87
40872;BME280;26591;43.264;26.940;2023-05-20T12:30:42;99017.72;;;18.98;67.36
40872;BME280;26591;43.264;26.940;2023-05-20T12:33:08;99023.72;;;19.38;66.83
40872;BME280;26591;43.264;26.940;2023-05-20T12:35:38;99017.34;;;19.69;66.22
40872;BME280;26591;43.264;26.940;2023-05-20T12:38:04;99010.69;;;19.72;66.23
40872;BME280;26591;43.264;26.940;2023-05-20T12:40:31;99009.34;;;19.81;66.29
40872;BME280;26591;43.264;26.940;2023-05-20T12:42:56;99008.56;;;19.62;66.07
40872;BME280;26591;43.264;26.940;2023-05-20T12:45:23;98997.78;;;19.31;66.39
40872;BME280;26591;43.264;26.940;2023-05-20T12:47:48;98995.53;;;19.28;66.52
40872;BME280;26591;43.264;26.940;2023-05-20T12:50:14;98992.06;;;19.28;67.14
40872;BME280;26591;43.264;26.940;2023-05-20T12:52:40;98985.16;;;19.50;66.57
40872;BME280;26591;43.264;26.940;2023-05-20T12:55:06;98979.75;;;19.39;66.99
40872;BME280;26591;43.264;26.940;2023-05-20T12:57:47;98976.16;;;19.45;67.76
40872;BME280;26591;43.264;26.940;2023-05-20T13:00:13;98977.44;;;19.73;67.50
40872;BME280;26591;43.264;26.940;2023-05-20T13:02:40;98968.84;;;19.82;66.66
40872;BME280;26591;43.264;26.940;2023-05-20T13:05:06;98963.81;;;19.74;66.06
40872;BME280;26591;43.264;26.940;2023-05-20T13:07:32;98981.25;;;19.34;67.32
40872;BME280;26591;43.264;26.940;2023-05-20T13:09:58;98980.78;;;19.19;69.75
40872;BME280;26591;43.264;26.940;2023-05-20T13:12:24;98970.59;;;19.28;70.80